createdAt,value
2018-12-09T00:02:00.764Z,7.60
2018-12-09T00:04:29.347Z,7.50
2018-12-09T00:06:57.990Z,7.60
2018-12-09T00:09:26.824Z,7.50
2018-12-09T00:11:55.446Z,7.60
2018-12-09T00:14:24.460Z,7.60
2018-12-09T00:16:53.104Z,7.60
2018-12-09T00:19:21.731Z,7.70
2018-12-09T00:21:50.426Z,7.70
2018-12-09T00:24:18.995Z,7.70
2018-12-09T00:26:47.536Z,7.70
2018-12-09T00:29:16.211Z,7.70
2018-12-09T00:31:44.713Z,7.80
2018-12-09T00:34:13.356Z,7.90
2018-12-09T00:36:41.887Z,7.90
2018-12-09T00:39:10.669Z,8.00
2018-12-09T00:41:39.307Z,8.00
2018-12-09T00:44:08.052Z,8.00
2018-12-09T00:46:36.654Z,8.00
2018-12-09T00:49:05.352Z,8.00
2018-12-09T00:51:40.777Z,8.10
2018-12-09T00:54:09.291Z,8.10
2018-12-09T00:56:38.044Z,8.10
2018-12-09T00:59:06.662Z,8.20
2018-12-09T01:01:35.358Z,8.20
2018-12-09T01:04:03.991Z,8.30
2018-12-09T01:06:32.578Z,8.40
2018-12-09T01:09:01.093Z,8.40
2018-12-09T01:11:29.581Z,8.40
2018-12-09T01:13:58.163Z,8.50
2018-12-09T01:16:26.717Z,8.50
2018-12-09T01:18:55.358Z,8.50
2018-12-09T01:21:23.900Z,8.50
2018-12-09T01:23:52.450Z,8.50
2018-12-09T01:26:21.117Z,8.60
2018-12-09T01:28:49.913Z,8.60
2018-12-09T01:31:18.538Z,8.60
2018-12-09T01:33:47.106Z,8.60
2018-12-09T01:36:15.668Z,8.60
2018-12-09T01:38:44.512Z,8.60
2018-12-09T01:41:13.154Z,8.60
2018-12-09T01:43:41.749Z,8.60
2018-12-09T01:46:10.289Z,8.60
2018-12-09T01:48:38.812Z,8.40
2018-12-09T01:51:07.389Z,8.30
2018-12-09T01:54:39.727Z,8.10
2018-12-09T01:57:08.397Z,8.00
2018-12-09T01:59:37.173Z,8.00
2018-12-09T02:02:06.137Z,8.00
2018-12-09T02:04:34.849Z,7.90
2018-12-09T02:07:03.437Z,7.90
2018-12-09T02:09:32.108Z,7.90
2018-12-09T02:12:00.652Z,7.90
2018-12-09T02:14:29.156Z,7.80
2018-12-09T02:16:57.775Z,7.70
2018-12-09T02:19:27.242Z,7.70
2018-12-09T02:21:56.013Z,7.70
2018-12-09T02:24:24.730Z,7.70
2018-12-09T02:26:53.321Z,7.80
2018-12-09T02:29:21.998Z,7.90
2018-12-09T02:31:51.916Z,8.00
2018-12-09T02:34:20.738Z,8.10
2018-12-09T02:36:49.386Z,8.10
2018-12-09T02:39:18.041Z,8.20
2018-12-09T02:41:46.697Z,8.30
2018-12-09T02:44:15.180Z,8.20
2018-12-09T02:46:43.689Z,8.20
2018-12-09T02:49:12.251Z,8.30
2018-12-09T02:51:40.835Z,8.40
2018-12-09T02:54:09.633Z,8.40
2018-12-09T02:56:38.760Z,8.50
2018-12-09T02:59:07.314Z,8.60
2018-12-09T03:01:38.081Z,8.60
2018-12-09T03:04:06.576Z,8.60
2018-12-09T03:06:35.098Z,8.60
2018-12-09T03:09:06.490Z,8.70
2018-12-09T03:11:35.072Z,8.80
2018-12-09T03:14:03.740Z,8.80
2018-12-09T03:16:32.406Z,8.90
2018-12-09T03:19:00.941Z,8.80
2018-12-09T03:21:29.888Z,8.70
2018-12-09T03:23:58.428Z,8.60
2018-12-09T03:26:26.983Z,8.70
2018-12-09T03:29:02.579Z,8.50
2018-12-09T03:31:31.179Z,8.50
2018-12-09T03:33:59.708Z,8.30
2018-12-09T03:36:28.244Z,8.20
2018-12-09T03:38:56.776Z,8.20
2018-12-09T03:41:25.252Z,8.10
2018-12-09T03:43:53.873Z,8.10
2018-12-09T03:46:22.529Z,8.00
2018-12-09T03:48:51.063Z,7.90
2018-12-09T03:51:19.974Z,7.80
2018-12-09T03:53:48.639Z,7.70
2018-12-09T03:56:17.145Z,7.60
2018-12-09T03:58:45.741Z,7.60
2018-12-09T04:01:14.274Z,7.50
2018-12-09T04:03:42.871Z,7.50
2018-12-09T04:06:11.430Z,7.40
2018-12-09T04:08:39.988Z,7.30
2018-12-09T04:11:08.494Z,7.30
2018-12-09T04:13:37.067Z,7.20
2018-12-09T04:16:05.775Z,7.20
2018-12-09T04:18:34.350Z,7.30
2018-12-09T04:21:02.936Z,7.30
2018-12-09T04:23:31.610Z,7.30
2018-12-09T04:26:00.637Z,7.30
2018-12-09T04:28:29.167Z,7.40
2018-12-09T04:30:57.773Z,7.50
2018-12-09T04:33:26.444Z,7.50
2018-12-09T04:35:55.001Z,7.50
2018-12-09T04:38:23.511Z,7.50
2018-12-09T04:40:52.139Z,7.60
2018-12-09T04:43:20.776Z,7.60
2018-12-09T04:45:49.283Z,7.60
2018-12-09T04:48:17.809Z,7.70
2018-12-09T04:50:46.330Z,7.70
2018-12-09T04:53:14.867Z,7.80
2018-12-09T04:55:43.417Z,7.80
2018-12-09T04:58:18.478Z,7.80
2018-12-09T05:00:53.958Z,7.70
2018-12-09T05:03:22.884Z,7.70
2018-12-09T05:05:51.402Z,7.80
2018-12-09T05:08:19.944Z,7.90
2018-12-09T05:10:48.568Z,7.80
2018-12-09T05:13:17.122Z,7.80
2018-12-09T05:15:45.590Z,7.80
2018-12-09T05:18:14.160Z,7.80
2018-12-09T05:20:42.713Z,7.90
2018-12-09T05:23:11.249Z,7.90
2018-12-09T05:25:39.758Z,7.90
2018-12-09T05:28:08.375Z,7.90
2018-12-09T05:30:36.889Z,7.90
2018-12-09T05:33:05.645Z,7.80
2018-12-09T05:35:34.147Z,7.80
2018-12-09T05:38:02.636Z,7.80
2018-12-09T05:40:31.215Z,7.80
2018-12-09T05:42:59.718Z,7.80
2018-12-09T05:45:28.468Z,7.80
2018-12-09T05:47:57.053Z,7.80
2018-12-09T05:50:25.566Z,7.80
2018-12-09T05:52:54.119Z,7.70
2018-12-09T05:55:22.692Z,7.70
2018-12-09T05:57:51.212Z,7.60
2018-12-09T06:00:19.716Z,7.60
2018-12-09T06:02:55.023Z,7.60
2018-12-09T06:05:23.879Z,7.60
2018-12-09T06:07:52.811Z,7.50
2018-12-09T06:10:21.370Z,7.40
2018-12-09T06:12:49.881Z,7.40
2018-12-09T06:15:18.390Z,7.40
2018-12-09T06:17:46.950Z,7.40
2018-12-09T06:20:15.553Z,7.50
2018-12-09T06:22:44.149Z,7.50
2018-12-09T06:25:12.925Z,7.50
2018-12-09T06:27:41.426Z,7.50
2018-12-09T06:30:11.261Z,7.60
2018-12-09T06:32:40.065Z,7.60
2018-12-09T06:35:09.074Z,7.50
2018-12-09T06:37:38.793Z,7.50
2018-12-09T06:40:07.919Z,7.50
2018-12-09T06:42:36.848Z,7.50
2018-12-09T06:45:06.321Z,7.50
2018-12-09T06:47:35.011Z,7.40
2018-12-09T06:50:04.437Z,7.40
2018-12-09T06:52:32.975Z,7.40
2018-12-09T06:55:02.696Z,7.30
2018-12-09T06:57:31.168Z,7.20
2018-12-09T06:59:59.692Z,7.20
2018-12-09T07:02:28.164Z,7.20
2018-12-09T07:04:56.808Z,7.20
2018-12-09T07:07:25.271Z,7.10
2018-12-09T07:09:53.842Z,7.10
2018-12-09T07:12:22.583Z,7.00
2018-12-09T07:14:51.132Z,6.90
2018-12-09T07:17:19.693Z,7.00
2018-12-09T07:19:48.338Z,7.00
2018-12-09T07:22:16.823Z,6.90
2018-12-09T07:24:45.347Z,6.90
2018-12-09T07:27:13.864Z,6.90
2018-12-09T07:29:42.342Z,6.90
2018-12-09T07:32:10.902Z,7.00
2018-12-09T07:34:39.414Z,7.00
2018-12-09T07:37:08.045Z,7.00
2018-12-09T07:39:36.614Z,7.00
2018-12-09T07:42:05.126Z,7.10
2018-12-09T07:44:33.652Z,7.10
2018-12-09T07:47:02.249Z,7.20
2018-12-09T07:49:30.766Z,7.30
2018-12-09T07:51:59.326Z,7.50
2018-12-09T07:54:28.531Z,7.50
2018-12-09T07:56:57.066Z,7.60
2018-12-09T07:59:25.646Z,7.60
2018-12-09T08:01:54.205Z,7.50
2018-12-09T08:04:22.683Z,7.60
2018-12-09T08:06:51.255Z,7.60
2018-12-09T08:09:19.749Z,7.60
2018-12-09T08:11:48.276Z,7.60
2018-12-09T08:14:16.828Z,7.70
2018-12-09T08:16:45.487Z,7.70
2018-12-09T08:19:14.034Z,7.70
2018-12-09T08:21:42.534Z,7.70
2018-12-09T08:24:11.118Z,7.70
2018-12-09T08:26:39.619Z,7.70
2018-12-09T08:29:08.137Z,7.90
2018-12-09T08:31:36.733Z,7.90
2018-12-09T08:34:05.218Z,7.90
2018-12-09T08:36:33.739Z,7.90
2018-12-09T08:39:02.326Z,8.00
2018-12-09T08:41:30.844Z,7.90
2018-12-09T08:43:59.383Z,8.00
2018-12-09T08:46:27.910Z,8.00
2018-12-09T08:48:56.424Z,7.90
2018-12-09T08:51:25.088Z,8.00
2018-12-09T08:53:53.690Z,7.90
2018-12-09T08:56:22.186Z,7.90
2018-12-09T08:58:50.744Z,8.00
2018-12-09T09:01:19.251Z,8.00
2018-12-09T09:03:47.805Z,7.90
2018-12-09T09:06:16.543Z,8.00
2018-12-09T09:08:45.119Z,8.00
2018-12-09T09:11:13.679Z,8.00
2018-12-09T09:13:42.242Z,8.20
2018-12-09T09:16:10.877Z,8.20
2018-12-09T09:18:39.353Z,8.10
2018-12-09T09:21:07.939Z,8.20
2018-12-09T09:23:36.487Z,8.30
2018-12-09T09:26:05.100Z,8.20
2018-12-09T09:28:33.599Z,8.30
2018-12-09T09:31:02.092Z,8.20
2018-12-09T09:33:30.699Z,8.30
2018-12-09T09:35:59.341Z,8.40
2018-12-09T09:38:27.889Z,8.40
2018-12-09T09:40:56.439Z,8.40
2018-12-09T09:43:25.002Z,8.50
2018-12-09T09:45:53.576Z,8.60
2018-12-09T09:48:22.140Z,8.60
2018-12-09T09:50:50.692Z,8.70
2018-12-09T09:53:19.260Z,8.60
2018-12-09T09:55:47.856Z,8.70
2018-12-09T09:58:16.346Z,8.70
2018-12-09T10:00:44.912Z,8.70
2018-12-09T10:03:14.009Z,8.70
2018-12-09T10:05:42.524Z,8.80
2018-12-09T10:08:11.114Z,8.80
2018-12-09T10:10:39.664Z,8.90
2018-12-09T10:13:08.187Z,8.90
2018-12-09T10:15:36.750Z,8.80
2018-12-09T10:18:05.343Z,8.70
2018-12-09T10:20:33.872Z,8.80
2018-12-09T10:23:02.375Z,8.80
2018-12-09T10:25:30.936Z,8.80
2018-12-09T10:27:59.432Z,8.70
2018-12-09T10:30:27.979Z,8.70
2018-12-09T10:32:56.578Z,8.70
2018-12-09T10:35:25.105Z,8.80
2018-12-09T10:37:53.663Z,8.70
2018-12-09T10:40:22.156Z,8.70
2018-12-09T10:42:50.736Z,8.60
2018-12-09T10:45:19.405Z,8.80
2018-12-09T10:47:47.911Z,8.80
2018-12-09T10:50:16.535Z,8.70
2018-12-09T10:52:45.060Z,8.70
2018-12-09T10:55:13.714Z,8.70
2018-12-09T10:57:42.258Z,8.80
2018-12-09T11:00:15.002Z,8.90
2018-12-09T11:02:43.520Z,8.80
2018-12-09T11:05:12.023Z,8.80
2018-12-09T11:07:40.553Z,8.80
2018-12-09T11:10:09.043Z,8.90
2018-12-09T11:12:37.605Z,8.90
2018-12-09T11:15:06.384Z,8.90
2018-12-09T11:17:34.908Z,9.00
2018-12-09T11:20:03.862Z,9.00
2018-12-09T11:22:32.566Z,8.80
2018-12-09T11:25:01.190Z,8.80
2018-12-09T11:27:29.862Z,8.70
2018-12-09T11:29:58.388Z,8.70
2018-12-09T11:32:26.990Z,8.80
2018-12-09T11:34:55.524Z,8.80
2018-12-09T11:37:24.073Z,8.60
2018-12-09T11:39:52.633Z,8.60
2018-12-09T11:42:21.326Z,8.50
2018-12-09T11:44:49.929Z,8.70
2018-12-09T11:47:18.452Z,8.60
2018-12-09T11:49:46.988Z,8.60
2018-12-09T11:52:15.628Z,8.40
2018-12-09T11:54:44.710Z,8.10
2018-12-09T11:57:13.858Z,7.70
2018-12-09T11:59:42.420Z,7.20
2018-12-09T12:02:10.957Z,7.00
2018-12-09T12:04:39.667Z,6.90
2018-12-09T12:07:08.351Z,6.80
2018-12-09T12:09:36.880Z,6.80
2018-12-09T12:12:05.491Z,6.80
2018-12-09T12:14:34.104Z,6.90
2018-12-09T12:17:02.730Z,6.90
2018-12-09T12:19:31.267Z,6.90
2018-12-09T12:21:59.869Z,6.90
2018-12-09T12:24:28.382Z,6.80
2018-12-09T12:26:56.939Z,6.80
2018-12-09T12:29:25.540Z,6.80
2018-12-09T12:31:54.121Z,6.80
2018-12-09T12:34:22.640Z,6.80
2018-12-09T12:36:51.321Z,6.80
2018-12-09T12:39:19.878Z,6.80
2018-12-09T12:41:48.423Z,6.90
2018-12-09T12:44:18.061Z,7.00
2018-12-09T12:46:48.527Z,7.10
2018-12-09T12:49:17.057Z,7.10
2018-12-09T12:51:45.793Z,7.20
2018-12-09T12:54:14.372Z,7.20
2018-12-09T12:56:42.945Z,7.30
2018-12-09T12:59:12.438Z,7.30
2018-12-09T13:01:41.249Z,7.30
2018-12-09T13:04:09.967Z,7.50
2018-12-09T13:06:38.738Z,7.50
2018-12-09T13:09:08.532Z,7.50
2018-12-09T13:11:37.053Z,7.50
2018-12-09T13:14:05.668Z,7.60
2018-12-09T13:16:34.242Z,7.60
2018-12-09T13:19:02.905Z,7.60
2018-12-09T13:21:31.622Z,7.50
2018-12-09T13:24:01.725Z,7.60
2018-12-09T13:26:30.597Z,7.60
2018-12-09T13:28:59.291Z,7.60
2018-12-09T13:31:27.989Z,7.60
2018-12-09T13:33:56.771Z,7.70
2018-12-09T13:36:25.274Z,7.70
2018-12-09T13:38:54.021Z,7.80
2018-12-09T13:41:22.659Z,7.80
2018-12-09T13:43:51.405Z,7.80
2018-12-09T13:46:19.978Z,7.70
2018-12-09T13:48:48.518Z,7.70
2018-12-09T13:51:17.280Z,7.80
2018-12-09T13:53:45.840Z,7.90
2018-12-09T13:56:14.346Z,7.90
2018-12-09T13:58:43.770Z,7.90
2018-12-09T14:01:12.300Z,7.90
2018-12-09T14:03:40.958Z,7.90
2018-12-09T14:06:11.394Z,7.90
2018-12-09T14:08:39.920Z,7.90
2018-12-09T14:11:08.442Z,8.00
2018-12-09T14:13:36.959Z,8.00
2018-12-09T14:16:05.564Z,8.10
2018-12-09T14:18:34.889Z,8.00
2018-12-09T14:21:04.177Z,8.00
2018-12-09T14:23:32.973Z,8.00
2018-12-09T14:26:01.755Z,7.90
2018-12-09T14:28:30.370Z,7.90
2018-12-09T14:30:59.889Z,7.90
2018-12-09T14:33:28.410Z,7.90
2018-12-09T14:35:57.140Z,7.90
2018-12-09T14:38:25.716Z,7.90
2018-12-09T14:40:54.348Z,7.90
2018-12-09T14:43:22.885Z,7.80
2018-12-09T14:45:51.452Z,7.80
2018-12-09T14:48:19.984Z,7.80
2018-12-09T14:50:48.525Z,7.80
2018-12-09T14:53:17.114Z,7.70
2018-12-09T14:55:45.701Z,7.70
2018-12-09T14:58:14.261Z,7.70
2018-12-09T15:00:42.909Z,7.60
2018-12-09T15:03:11.516Z,7.60
2018-12-09T15:05:40.100Z,7.60
2018-12-09T15:08:08.741Z,7.70
2018-12-09T15:10:37.363Z,7.60
2018-12-09T15:13:05.967Z,7.60
2018-12-09T15:15:34.557Z,7.60
2018-12-09T15:18:03.258Z,7.60
2018-12-09T15:20:31.793Z,7.60
2018-12-09T15:23:00.335Z,7.60
2018-12-09T15:25:30.168Z,7.60
2018-12-09T15:27:58.788Z,7.50
2018-12-09T15:30:27.523Z,7.50
2018-12-09T15:32:56.257Z,7.40
2018-12-09T15:35:24.841Z,7.30
2018-12-09T15:37:53.538Z,7.30
2018-12-09T15:40:22.947Z,7.30
2018-12-09T15:42:51.505Z,7.40
2018-12-09T15:45:20.136Z,7.40
2018-12-09T15:47:48.704Z,7.40
2018-12-09T15:50:17.258Z,7.40
2018-12-09T15:52:45.838Z,7.30
2018-12-09T15:55:14.470Z,7.40
2018-12-09T15:57:43.069Z,7.40
2018-12-09T16:00:11.915Z,7.40
2018-12-09T16:02:40.468Z,7.50
2018-12-09T16:05:09.232Z,7.50
2018-12-09T16:07:37.817Z,7.50
2018-12-09T16:10:08.958Z,7.40
2018-12-09T16:12:37.502Z,7.40
2018-12-09T16:15:06.680Z,7.40
2018-12-09T16:17:35.154Z,7.50
2018-12-09T16:20:04.510Z,7.40
2018-12-09T16:22:33.076Z,7.40
2018-12-09T16:25:01.760Z,7.30
2018-12-09T16:27:30.811Z,7.50
2018-12-09T16:29:59.439Z,7.40
2018-12-09T16:32:27.985Z,7.50
2018-12-09T16:34:56.515Z,7.50
2018-12-09T16:37:25.197Z,7.50
2018-12-09T16:39:53.833Z,7.50
2018-12-09T16:42:22.622Z,7.50
2018-12-09T16:44:51.222Z,7.40
2018-12-09T16:47:19.718Z,7.50
2018-12-09T16:49:48.271Z,7.50
2018-12-09T16:52:16.752Z,7.40
2018-12-09T16:54:45.323Z,7.30
2018-12-09T16:57:14.520Z,7.40
2018-12-09T16:59:43.412Z,7.40
2018-12-09T17:02:11.988Z,7.40
2018-12-09T17:04:40.782Z,7.40
2018-12-09T17:07:09.409Z,7.50
2018-12-09T17:09:38.328Z,7.40
2018-12-09T17:16:14.141Z,7.50
2018-12-09T17:18:43.281Z,7.40
2018-12-09T17:21:11.839Z,7.40
2018-12-09T17:23:40.545Z,7.40
2018-12-09T17:26:09.504Z,7.40
2018-12-09T17:28:38.090Z,7.40
2018-12-09T17:31:07.174Z,7.30
2018-12-09T17:33:35.805Z,7.40
2018-12-09T17:36:04.620Z,7.30
2018-12-09T17:38:33.167Z,7.30
2018-12-09T17:41:01.867Z,7.30
2018-12-09T17:43:30.376Z,7.30
2018-12-09T17:45:58.911Z,7.20
2018-12-09T17:48:27.409Z,7.30
2018-12-09T17:50:56.073Z,7.20
2018-12-09T17:53:24.669Z,7.30
2018-12-09T17:55:53.417Z,7.30
2018-12-09T17:58:22.333Z,7.40
2018-12-09T18:00:50.835Z,7.30
2018-12-09T18:03:19.446Z,7.30
2018-12-09T18:05:48.610Z,7.40
2018-12-09T18:08:17.170Z,7.30
2018-12-09T18:10:45.808Z,7.30
2018-12-09T18:13:14.409Z,7.20
2018-12-09T18:15:43.114Z,7.30
2018-12-09T18:18:11.860Z,7.30
2018-12-09T18:20:40.400Z,7.20
2018-12-09T18:23:09.379Z,7.20
2018-12-09T18:25:38.076Z,7.30
2018-12-09T18:28:06.755Z,7.30
2018-12-09T18:30:35.913Z,7.30
2018-12-09T18:33:04.577Z,7.40
2018-12-09T18:35:33.189Z,7.40
2018-12-09T18:38:01.943Z,7.30
2018-12-09T18:40:30.783Z,7.40
2018-12-09T18:42:59.413Z,7.40
2018-12-09T18:45:28.059Z,7.30
2018-12-09T18:47:56.669Z,7.40
2018-12-09T18:50:25.297Z,7.50
2018-12-09T18:52:54.180Z,7.40
2018-12-09T18:55:22.860Z,7.40
2018-12-09T18:57:51.428Z,7.50
2018-12-09T19:00:20.468Z,7.60
2018-12-09T19:02:49.168Z,7.50
2018-12-09T19:05:18.001Z,7.40
2018-12-09T19:07:47.139Z,7.40
2018-12-09T19:10:15.947Z,7.40
2018-12-09T19:12:44.546Z,7.40
2018-12-09T19:15:13.502Z,7.40
2018-12-09T19:17:42.125Z,7.40
2018-12-09T19:20:10.675Z,7.50
2018-12-09T19:22:39.479Z,7.50
2018-12-09T19:25:08.187Z,7.50
2018-12-09T19:27:36.850Z,7.50
2018-12-09T19:30:06.236Z,7.50
2018-12-09T19:32:35.273Z,7.60
2018-12-09T19:35:04.134Z,7.50
2018-12-09T19:37:33.182Z,7.50
2018-12-09T19:40:01.870Z,7.60
2018-12-09T19:42:30.547Z,7.60
2018-12-09T19:44:59.799Z,7.60
2018-12-09T19:47:28.447Z,7.50
2018-12-09T19:49:57.630Z,7.50
2018-12-09T19:52:26.347Z,7.50
2018-12-09T19:54:54.997Z,7.40
2018-12-09T19:57:23.653Z,7.40
2018-12-09T19:59:52.219Z,7.30
2018-12-09T20:02:20.866Z,7.20
2018-12-09T20:04:49.600Z,7.20
2018-12-09T20:07:18.222Z,7.20
2018-12-09T20:09:46.824Z,7.20
2018-12-09T20:12:15.548Z,7.10
2018-12-09T20:14:46.575Z,7.20
2018-12-09T20:17:15.278Z,7.20
2018-12-09T20:19:43.886Z,7.20
2018-12-09T20:22:12.576Z,7.10
2018-12-09T20:24:41.433Z,7.10
2018-12-09T20:27:10.936Z,7.10
2018-12-09T20:29:39.774Z,7.10
2018-12-09T20:32:08.615Z,7.10
2018-12-09T20:34:37.425Z,7.20
2018-12-09T20:37:05.989Z,7.20
2018-12-09T20:39:34.631Z,7.20
2018-12-09T20:42:03.236Z,7.20
2018-12-09T20:44:32.447Z,7.30
2018-12-09T20:47:01.427Z,7.40
2018-12-09T20:49:30.068Z,7.40
2018-12-09T20:51:59.205Z,7.30
2018-12-09T20:54:27.790Z,7.40
2018-12-09T20:56:56.423Z,7.40
2018-12-09T20:59:25.104Z,7.40
2018-12-09T21:01:53.852Z,7.40
2018-12-09T21:04:22.496Z,7.40
2018-12-09T21:06:51.132Z,7.50
2018-12-09T21:09:20.096Z,7.50
2018-12-09T21:11:48.721Z,7.40
2018-12-09T21:14:17.351Z,7.40
2018-12-09T21:16:46.365Z,7.30
2018-12-09T21:19:15.083Z,7.40
2018-12-09T21:21:43.616Z,7.40
2018-12-09T21:24:12.207Z,7.30
2018-12-09T21:26:40.819Z,7.30
2018-12-09T21:29:11.261Z,7.40
2018-12-09T21:31:39.829Z,7.40
2018-12-09T21:34:08.357Z,7.50
2018-12-09T21:36:37.088Z,7.40
2018-12-09T21:39:07.420Z,7.30
2018-12-09T21:41:36.035Z,7.30
2018-12-09T21:44:04.725Z,7.20
2018-12-09T21:46:33.202Z,7.30
2018-12-09T21:49:01.787Z,7.30
2018-12-09T21:51:30.377Z,7.30
2018-12-09T21:54:02.334Z,7.20
2018-12-09T21:56:30.975Z,7.20
2018-12-09T21:58:59.951Z,7.10
2018-12-09T22:01:28.545Z,7.20
2018-12-09T22:03:57.270Z,7.20
2018-12-09T22:06:25.824Z,7.20
2018-12-09T22:08:54.377Z,7.20
2018-12-09T22:11:22.968Z,7.20
2018-12-09T22:13:51.600Z,7.10
2018-12-09T22:16:20.158Z,7.00
2018-12-09T22:18:48.938Z,7.00
2018-12-09T22:21:17.445Z,6.90
2018-12-09T22:23:51.201Z,7.00
2018-12-09T22:26:19.675Z,6.90
2018-12-09T22:28:48.156Z,6.90
2018-12-09T22:31:16.782Z,6.90
2018-12-09T22:33:45.332Z,6.90
2018-12-09T22:36:20.314Z,6.90
2018-12-09T22:38:48.855Z,6.90
2018-12-09T22:41:17.328Z,6.90
2018-12-09T22:43:45.898Z,6.90
2018-12-09T22:46:14.376Z,6.90
2018-12-09T22:48:42.922Z,6.90
2018-12-09T22:51:11.654Z,6.90
2018-12-09T22:53:40.140Z,6.90
2018-12-09T22:56:08.612Z,6.90
2018-12-09T22:58:37.125Z,6.90
2018-12-09T23:01:11.049Z,6.80
2018-12-09T23:03:39.682Z,6.80
2018-12-09T23:08:36.757Z,6.70
2018-12-09T23:11:06.234Z,6.80
2018-12-09T23:13:34.725Z,6.80
2018-12-09T23:16:03.324Z,6.80
2018-12-09T23:18:31.891Z,6.80
2018-12-09T23:21:00.386Z,6.70
2018-12-09T23:23:28.890Z,6.70
2018-12-09T23:25:57.404Z,6.60
2018-12-09T23:28:25.932Z,6.60
2018-12-09T23:30:54.441Z,6.60
2018-12-09T23:33:23.047Z,6.60
2018-12-09T23:35:51.514Z,6.70
2018-12-09T23:38:20.059Z,6.70
2018-12-09T23:40:48.620Z,6.70
2018-12-09T23:43:17.105Z,6.80
2018-12-09T23:45:45.586Z,6.80
2018-12-09T23:48:14.074Z,6.70
2018-12-09T23:50:42.586Z,6.70
2018-12-09T23:53:11.092Z,6.80
2018-12-09T23:55:39.608Z,6.80
2018-12-09T23:58:08.130Z,6.70
